Time;durP1;ratioP1;P1;durP2;ratioP2;P2;SDS_P1;SDS_P2;PMS_P1;PMS_P2;Temp;Humidity;BMP_temperature;BMP_pressure;BME280_temperature;BME280_humidity;BME280_pressure;Samples;Min_cycle;Max_cycle;Signal;HPM_P1;HPM_P2
2022/09/05 00:02:24;;;;;;;0.70;0.70;;;;;;;;;;5083759;28;20834;-69
2022/09/05 00:04:55;;;;;;;0.70;0.60;;;;;;;;;;5083058;28;20448;-69
2022/09/05 00:07:24;;;;;;;0.70;0.70;;;;;;;;;;5085981;28;20560;-69
2022/09/05 00:10:18;;;;;;;0.70;0.70;;;;;;;;;;5083938;28;20825;-69
2022/09/05 00:12:47;;;;;;;0.80;0.73;;;;;;;;;;5085249;28;20455;-69
2022/09/05 00:15:22;;;;;;;0.70;0.70;;;;;;;;;;5081727;28;20452;-69
2022/09/05 00:17:57;;;;;;;0.70;0.70;;;;;;;;;;5088428;28;20512;-68
2022/09/05 00:20:48;;;;;;;3.53;1.07;;;;;;;;;;5086911;28;20464;-69
2022/09/05 00:23:39;;;;;;;0.80;0.80;;;;;;;;;;5093697;28;20548;-69
2022/09/05 00:26:32;;;;;;;0.80;0.77;;;;;;;;;;5086478;28;20513;-69
2022/09/05 00:29:03;;;;;;;0.80;0.80;;;;;;;;;;5074947;28;20466;-70
2022/09/05 00:31:39;;;;;;;0.70;0.60;;;;;;;;;;5071582;28;20448;-68
2022/09/05 00:34:31;;;;;;;0.70;0.70;;;;;;;;;;5089182;28;20520;-68
2022/09/05 00:37:25;;;;;;;0.90;0.90;;;;;;;;;;5079574;28;20474;-69
2022/09/05 00:39:55;;;;;;;1.40;1.30;;;;;;;;;;5082793;28;20529;-69
2022/09/05 00:42:45;;;;;;;0.80;0.80;;;;;;;;;;5079780;28;20825;-68
2022/09/05 00:45:15;;;;;;;0.70;0.60;;;;;;;;;;5085964;28;20468;-70
2022/09/05 00:47:48;;;;;;;0.70;0.70;;;;;;;;;;5072402;28;20540;-68
2022/09/05 00:50:19;;;;;;;0.70;0.67;;;;;;;;;;5078358;28;20825;-69
2022/09/05 00:52:56;;;;;;;0.80;0.80;;;;;;;;;;5078182;28;20463;-69
2022/09/05 00:55:41;;;;;;;0.80;0.70;;;;;;;;;;5073280;28;20946;-68
2022/09/05 00:58:16;;;;;;;0.70;0.70;;;;;;;;;;5089847;28;20421;-69
2022/09/05 01:00:50;;;;;;;0.80;0.80;;;;;;;;;;5087219;28;20437;-69
2022/09/05 01:03:43;;;;;;;0.80;0.70;;;;;;;;;;5083032;28;20429;-68
2022/09/05 01:06:27;;;;;;;0.70;0.70;;;;;;;;;;5066331;28;20487;-68
2022/09/05 01:09:13;;;;;;;0.70;0.70;;;;;;;;;;5088041;28;20546;-69
2022/09/05 01:11:47;;;;;;;0.80;0.80;;;;;;;;;;5090105;28;20446;-68
2022/09/05 01:14:24;;;;;;;0.83;0.80;;;;;;;;;;5070120;28;20462;-68
2022/09/05 01:17:07;;;;;;;0.70;0.70;;;;;;;;;;5090692;28;20497;-69
2022/09/05 01:19:46;;;;;;;0.77;0.70;;;;;;;;;;5075252;28;20427;-68
2022/09/05 01:22:41;;;;;;;0.70;0.70;;;;;;;;;;5057134;28;20469;-69
2022/09/05 01:25:25;;;;;;;1.77;1.67;;;;;;;;;;5082649;28;20546;-68
2022/09/05 01:27:59;;;;;;;1.23;1.13;;;;;;;;;;5064266;28;21014;-68
2022/09/05 01:30:54;;;;;;;0.70;0.60;;;;;;;;;;5066222;28;20616;-68
2022/09/05 01:33:38;;;;;;;1.10;1.00;;;;;;;;;;5068650;28;20491;-69
2022/09/05 01:36:18;;;;;;;0.73;0.73;;;;;;;;;;5083706;28;20500;-70
2022/09/05 01:38:54;;;;;;;0.80;0.70;;;;;;;;;;5085661;28;20427;-68
2022/09/05 01:41:52;;;;;;;0.70;0.60;;;;;;;;;;5070876;28;20961;-68
2022/09/05 01:44:31;;;;;;;0.70;0.60;;;;;;;;;;5083388;28;20415;-69
2022/09/05 01:47:07;;;;;;;0.80;0.80;;;;;;;;;;5073494;28;20429;-68
2022/09/05 01:49:43;;;;;;;0.80;0.70;;;;;;;;;;5086500;28;20449;-69
2022/09/05 01:52:32;;;;;;;0.80;0.70;;;;;;;;;;5077730;28;21032;-69
2022/09/05 01:55:17;;;;;;;0.80;0.80;;;;;;;;;;5078299;28;20553;-69
2022/09/05 01:57:55;;;;;;;0.80;0.80;;;;;;;;;;5088106;28;20499;-68
2022/09/05 02:00:34;;;;;;;0.80;0.73;;;;;;;;;;5071347;28;20476;-71
2022/09/05 02:03:14;;;;;;;0.70;0.67;;;;;;;;;;5080366;28;20423;-70
2022/09/05 02:05:58;;;;;;;1.00;1.00;;;;;;;;;;5072826;28;20823;-69
2022/09/05 02:08:36;;;;;;;0.70;0.70;;;;;;;;;;5081524;28;20436;-69
2022/09/05 02:11:07;;;;;;;0.80;0.70;;;;;;;;;;5071770;28;20450;-69
2022/09/05 02:13:48;;;;;;;0.80;0.70;;;;;;;;;;5073105;28;20981;-68
2022/09/05 02:16:20;;;;;;;0.80;0.77;;;;;;;;;;5082633;28;20555;-69
2022/09/05 02:18:52;;;;;;;0.80;0.70;;;;;;;;;;5064911;28;20447;-69
2022/09/05 02:21:27;;;;;;;0.87;0.87;;;;;;;;;;5075680;28;20471;-69
2022/09/05 02:24:02;;;;;;;0.70;0.60;;;;;;;;;;5078744;28;20487;-69
2022/09/05 02:26:31;;;;;;;0.80;0.80;;;;;;;;;;5079594;28;20521;-69
2022/09/05 02:29:00;;;;;;;0.80;0.70;;;;;;;;;;5080627;28;20929;-69
2022/09/05 02:31:32;;;;;;;0.73;0.70;;;;;;;;;;5068444;28;20447;-69
2022/09/05 02:34:03;;;;;;;0.70;0.70;;;;;;;;;;5081209;28;20472;-69
2022/09/05 02:36:32;;;;;;;1.20;1.10;;;;;;;;;;5072842;28;20496;-69
2022/09/05 02:39:04;;;;;;;0.80;0.70;;;;;;;;;;5075458;28;20522;-70
2022/09/05 02:41:56;;;;;;;0.70;0.60;;;;;;;;;;5087619;28;20452;-70
2022/09/05 02:44:50;;;;;;;0.80;0.80;;;;;;;;;;5090555;28;20471;-69
2022/09/05 02:47:41;;;;;;;0.70;0.60;;;;;;;;;;5082274;28;20774;-69
2022/09/05 02:50:27;;;;;;;0.80;0.80;;;;;;;;;;5072868;28;20473;-69
2022/09/05 02:53:17;;;;;;;0.70;0.70;;;;;;;;;;5081314;28;20886;-71
2022/09/05 02:56:11;;;;;;;0.70;0.60;;;;;;;;;;5083536;28;20444;-69
2022/09/05 02:59:01;;;;;;;0.70;0.70;;;;;;;;;;5080929;28;20495;-69
2022/09/05 03:01:54;;;;;;;0.70;0.60;;;;;;;;;;5079601;28;20456;-69
2022/09/05 03:04:26;;;;;;;0.70;0.70;;;;;;;;;;5074016;28;21015;-69
2022/09/05 03:07:00;;;;;;;0.70;0.70;;;;;;;;;;5084076;28;20448;-69
2022/09/05 03:09:33;;;;;;;0.80;0.80;;;;;;;;;;5092552;28;20842;-69
2022/09/05 03:12:14;;;;;;;0.87;0.87;;;;;;;;;;5076959;28;20481;-69
2022/09/05 03:15:14;;;;;;;0.80;0.80;;;;;;;;;;5088336;28;20489;-71
2022/09/05 03:18:07;;;;;;;0.70;0.70;;;;;;;;;;5083089;28;20434;-69
2022/09/05 03:21:02;;;;;;;1.00;0.90;;;;;;;;;;5087805;28;20450;-69
2022/09/05 03:23:53;;;;;;;0.70;0.60;;;;;;;;;;5045879;28;20805;-68
2022/09/05 03:26:41;;;;;;;0.80;0.80;;;;;;;;;;5098390;28;20587;-69
2022/09/05 03:29:26;;;;;;;1.00;0.90;;;;;;;;;;5075668;28;20984;-68
2022/09/05 03:32:17;;;;;;;0.70;0.67;;;;;;;;;;5087956;28;20529;-69
2022/09/05 03:34:53;;;;;;;0.80;0.80;;;;;;;;;;5093739;28;20572;-69
2022/09/05 03:37:34;;;;;;;0.70;0.70;;;;;;;;;;5093280;28;20964;-69
2022/09/05 03:40:21;;;;;;;1.20;1.10;;;;;;;;;;5071539;28;20478;-69
2022/09/05 03:42:57;;;;;;;0.87;0.83;;;;;;;;;;5074685;28;20443;-69
2022/09/05 03:45:32;;;;;;;0.80;0.80;;;;;;;;;;5090674;28;20459;-69
2022/09/05 03:48:18;;;;;;;0.87;0.87;;;;;;;;;;5091108;28;20454;-69
2022/09/05 03:51:02;;;;;;;0.70;0.70;;;;;;;;;;5087542;28;20983;-69
2022/09/05 03:54:14;;;;;;;0.70;0.70;;;;;;;;;;5088092;28;20468;-69
2022/09/05 03:57:17;;;;;;;1.10;1.00;;;;;;;;;;5085561;28;20449;-69
2022/09/05 04:00:09;;;;;;;0.70;0.70;;;;;;;;;;5091610;28;20436;-69
2022/09/05 04:02:50;;;;;;;0.80;0.80;;;;;;;;;;5088849;28;20460;-68
2022/09/05 04:05:39;;;;;;;1.00;0.90;;;;;;;;;;5082535;28;20881;-69
2022/09/05 04:08:33;;;;;;;0.70;0.70;;;;;;;;;;5081528;28;20449;-70
2022/09/05 04:11:12;;;;;;;1.10;1.00;;;;;;;;;;5075057;28;20441;-69
2022/09/05 04:13:44;;;;;;;1.10;1.00;;;;;;;;;;5086232;28;20542;-69
2022/09/05 04:16:14;;;;;;;0.70;0.60;;;;;;;;;;5081974;28;20549;-68
2022/09/05 04:18:44;;;;;;;0.87;0.73;;;;;;;;;;5082901;28;20439;-69
2022/09/05 04:21:14;;;;;;;0.70;0.60;;;;;;;;;;5079052;28;20526;-68
2022/09/05 04:23:59;;;;;;;1.07;0.97;;;;;;;;;;5088576;28;21080;-71
2022/09/05 04:26:35;;;;;;;0.90;0.90;;;;;;;;;;5075942;28;20471;-69
2022/09/05 04:29:13;;;;;;;0.73;0.73;;;;;;;;;;5083550;28;20476;-68
2022/09/05 04:31:43;;;;;;;1.03;1.00;;;;;;;;;;5088857;28;20798;-69
2022/09/05 04:34:24;;;;;;;3.33;2.10;;;;;;;;;;5074305;28;20482;-69
2022/09/05 04:37:00;;;;;;;0.80;0.80;;;;;;;;;;5074015;28;20855;-69
2022/09/05 04:39:28;;;;;;;0.70;0.60;;;;;;;;;;5076128;28;20923;-69
2022/09/05 04:41:58;;;;;;;1.63;1.17;;;;;;;;;;5083942;28;20537;-69
2022/09/05 04:44:27;;;;;;;0.70;0.70;;;;;;;;;;5082412;28;20529;-70
2022/09/05 04:46:54;;;;;;;1.03;1.00;;;;;;;;;;5082975;28;20450;-69
2022/09/05 04:49:25;;;;;;;0.97;0.90;;;;;;;;;;5084386;28;20463;-69
2022/09/05 04:52:09;;;;;;;0.77;0.73;;;;;;;;;;5083266;28;20450;-70
2022/09/05 04:54:42;;;;;;;0.70;0.70;;;;;;;;;;5083424;28;20503;-70
2022/09/05 04:57:14;;;;;;;0.70;0.63;;;;;;;;;;5085047;28;20524;-70
2022/09/05 04:59:44;;;;;;;1.53;1.47;;;;;;;;;;5073789;28;20444;-71
2022/09/05 05:02:35;;;;;;;0.70;0.70;;;;;;;;;;5083107;28;20521;-70
2022/09/05 05:05:24;;;;;;;0.70;0.60;;;;;;;;;;5085295;28;20463;-69
2022/09/05 05:08:13;;;;;;;0.80;0.80;;;;;;;;;;5084640;28;20489;-69
2022/09/05 05:10:43;;;;;;;0.90;0.90;;;;;;;;;;5082947;28;20422;-70
2022/09/05 05:13:33;;;;;;;0.70;0.70;;;;;;;;;;5086978;28;20486;-69
2022/09/05 05:16:22;;;;;;;0.70;0.70;;;;;;;;;;5080437;28;20799;-70
2022/09/05 05:19:13;;;;;;;0.80;0.80;;;;;;;;;;5083852;28;20453;-71
2022/09/05 05:21:48;;;;;;;0.70;0.70;;;;;;;;;;5075256;28;20457;-70
2022/09/05 05:24:16;;;;;;;0.70;0.63;;;;;;;;;;5073543;28;20421;-69
2022/09/05 05:26:50;;;;;;;0.70;0.70;;;;;;;;;;5086338;28;20434;-69
2022/09/05 05:29:28;;;;;;;0.80;0.77;;;;;;;;;;5078268;28;20449;-69
2022/09/05 05:31:57;;;;;;;0.70;0.60;;;;;;;;;;5084464;28;20950;-69
2022/09/05 05:34:26;;;;;;;0.70;0.70;;;;;;;;;;5082673;28;20485;-69
2022/09/05 05:36:55;;;;;;;0.80;0.80;;;;;;;;;;5082701;28;21066;-69
2022/09/05 05:39:27;;;;;;;0.80;0.80;;;;;;;;;;5083538;28;20446;-69
2022/09/05 05:41:54;;;;;;;1.83;0.97;;;;;;;;;;5078453;28;20514;-69
2022/09/05 05:44:25;;;;;;;0.70;0.70;;;;;;;;;;5085419;28;20553;-69
2022/09/05 05:46:56;;;;;;;1.63;1.53;;;;;;;;;;5090779;28;20449;-69
2022/09/05 05:49:26;;;;;;;0.80;0.80;;;;;;;;;;5089958;28;20521;-69
2022/09/05 05:52:02;;;;;;;0.87;0.87;;;;;;;;;;5064160;28;20498;-69
2022/09/05 05:54:35;;;;;;;0.80;0.80;;;;;;;;;;5084510;28;20465;-69
2022/09/05 05:57:16;;;;;;;0.70;0.70;;;;;;;;;;5086804;28;20438;-70
2022/09/05 05:59:58;;;;;;;1.30;1.20;;;;;;;;;;5071734;28;20432;-69
2022/09/05 06:02:44;;;;;;;0.80;0.77;;;;;;;;;;5082959;28;20447;-69
2022/09/05 06:05:26;;;;;;;4.07;0.90;;;;;;;;;;5078178;28;20441;-69
2022/09/05 06:08:01;;;;;;;0.70;0.70;;;;;;;;;;5073607;28;20468;-70
2022/09/05 06:11:08;;;;;;;1.27;1.17;;;;;;;;;;5082355;28;20444;-70
2022/09/05 06:14:16;;;;;;;0.80;0.77;;;;;;;;;;5080319;28;20517;-68
2022/09/05 06:17:25;;;;;;;0.70;0.70;;;;;;;;;;5080330;28;20464;-68
2022/09/05 06:20:15;;;;;;;0.70;0.70;;;;;;;;;;5075289;28;20543;-68
2022/09/05 06:23:20;;;;;;;0.70;0.60;;;;;;;;;;5080891;28;20441;-69
2022/09/05 06:26:12;;;;;;;0.80;0.70;;;;;;;;;;5077467;28;20794;-68
2022/09/05 06:28:49;;;;;;;0.70;0.70;;;;;;;;;;5090021;28;20435;-69
2022/09/05 06:31:25;;;;;;;0.77;0.70;;;;;;;;;;5084861;28;20433;-69
2022/09/05 06:34:06;;;;;;;0.80;0.80;;;;;;;;;;5080732;28;20496;-69
2022/09/05 06:36:56;;;;;;;0.70;0.60;;;;;;;;;;5077845;28;20467;-68
2022/09/05 06:39:33;;;;;;;0.77;0.70;;;;;;;;;;5074933;28;20431;-69
2022/09/05 06:42:21;;;;;;;0.80;0.70;;;;;;;;;;5085932;28;20839;-69
2022/09/05 06:45:25;;;;;;;1.27;1.17;;;;;;;;;;5080897;28;20442;-69
2022/09/05 06:47:57;;;;;;;0.77;0.70;;;;;;;;;;5089752;28;20998;-69
2022/09/05 06:50:28;;;;;;;0.80;0.80;;;;;;;;;;5081145;28;20431;-69
2022/09/05 06:53:41;;;;;;;0.80;0.80;;;;;;;;;;5090625;28;20436;-70
2022/09/05 06:56:21;;;;;;;0.70;0.63;;;;;;;;;;5041948;28;21067;-69
2022/09/05 06:59:09;;;;;;;0.80;0.70;;;;;;;;;;5085012;28;20842;-69
2022/09/05 07:01:37;;;;;;;0.80;0.70;;;;;;;;;;5076656;28;20460;-71
2022/09/05 07:04:30;;;;;;;0.80;0.80;;;;;;;;;;5090770;28;20426;-70
2022/09/05 07:07:21;;;;;;;0.70;0.70;;;;;;;;;;5094168;28;20461;-70
2022/09/05 07:09:57;;;;;;;0.70;0.60;;;;;;;;;;5095776;28;20945;-72
2022/09/05 07:12:27;;;;;;;0.80;0.70;;;;;;;;;;5076946;28;20492;-70
2022/09/05 07:14:59;;;;;;;0.80;0.70;;;;;;;;;;5081111;28;20471;-71
2022/09/05 07:17:38;;;;;;;0.80;0.70;;;;;;;;;;5092146;28;20856;-71
2022/09/05 07:20:30;;;;;;;0.70;0.70;;;;;;;;;;5085375;28;20431;-70
2022/09/05 07:23:22;;;;;;;0.87;0.83;;;;;;;;;;5082233;28;20561;-72
2022/09/05 07:26:10;;;;;;;2.23;1.57;;;;;;;;;;5081931;28;20536;-69
2022/09/05 07:29:01;;;;;;;0.80;0.80;;;;;;;;;;5087888;28;20432;-68
2022/09/05 07:31:31;;;;;;;0.80;0.80;;;;;;;;;;5080740;28;20427;-68
2022/09/05 07:34:06;;;;;;;0.80;0.80;;;;;;;;;;5078714;28;20445;-68
2022/09/05 07:36:50;;;;;;;0.70;0.67;;;;;;;;;;5075924;28;20471;-68
2022/09/05 07:39:39;;;;;;;0.80;0.70;;;;;;;;;;5080673;28;20423;-70
2022/09/05 07:42:13;;;;;;;0.80;0.70;;;;;;;;;;5062109;28;20462;-74
2022/09/05 07:44:47;;;;;;;0.80;0.77;;;;;;;;;;5090980;28;20496;-70
2022/09/05 07:47:19;;;;;;;1.00;0.90;;;;;;;;;;5082951;28;20530;-69
2022/09/05 07:49:46;;;;;;;0.80;0.80;;;;;;;;;;5084800;28;20434;-69
2022/09/05 07:52:36;;;;;;;0.83;0.70;;;;;;;;;;5083512;28;20489;-69
2022/09/05 07:55:25;;;;;;;2.77;1.63;;;;;;;;;;5085206;28;20478;-69
2022/09/05 07:58:13;;;;;;;0.80;0.70;;;;;;;;;;5090019;28;20409;-69
2022/09/05 08:00:42;;;;;;;0.80;0.70;;;;;;;;;;5091548;28;20405;-70
2022/09/05 08:03:10;;;;;;;0.90;0.80;;;;;;;;;;5076260;28;20418;-69
2022/09/05 08:05:39;;;;;;;0.80;0.70;;;;;;;;;;5074908;28;20468;-70
2022/09/05 08:08:08;;;;;;;0.80;0.80;;;;;;;;;;5077071;28;20428;-68
2022/09/05 08:10:38;;;;;;;0.80;0.80;;;;;;;;;;5079967;28;20405;-70
2022/09/05 08:13:27;;;;;;;0.80;0.70;;;;;;;;;;5073642;28;20450;-69
2022/09/05 08:15:58;;;;;;;0.80;0.80;;;;;;;;;;5075308;28;20465;-71
2022/09/05 08:18:40;;;;;;;1.13;0.70;;;;;;;;;;5081447;28;20439;-69
2022/09/05 08:21:12;;;;;;;0.80;0.80;;;;;;;;;;5084423;28;20455;-69
2022/09/05 08:23:47;;;;;;;1.07;0.97;;;;;;;;;;5075064;28;20871;-70
2022/09/05 08:26:15;;;;;;;0.90;0.90;;;;;;;;;;5090675;28;20574;-69
2022/09/05 08:28:52;;;;;;;0.90;0.80;;;;;;;;;;5093255;28;20513;-68
2022/09/05 08:31:26;;;;;;;1.00;0.90;;;;;;;;;;5094816;28;20426;-68
2022/09/05 08:33:55;;;;;;;1.53;1.43;;;;;;;;;;5088515;28;20802;-68
2022/09/05 08:36:26;;;;;;;0.80;0.80;;;;;;;;;;5091257;28;20453;-68
2022/09/05 08:38:55;;;;;;;0.80;0.70;;;;;;;;;;5087983;28;20474;-67
2022/09/05 08:41:25;;;;;;;0.80;0.70;;;;;;;;;;5086662;28;20542;-68
2022/09/05 08:44:13;;;;;;;0.80;0.70;;;;;;;;;;5078642;28;20486;-68
2022/09/05 08:47:07;;;;;;;1.43;1.33;;;;;;;;;;5086182;28;20429;-74
2022/09/05 08:49:38;;;;;;;0.73;0.60;;;;;;;;;;5081953;28;20530;-68
2022/09/05 08:52:16;;;;;;;1.87;1.23;;;;;;;;;;5081729;28;21066;-68
2022/09/05 08:54:50;;;;;;;1.20;1.10;;;;;;;;;;5079170;28;20439;-67
2022/09/05 08:57:50;;;;;;;1.30;0.70;;;;;;;;;;5078142;28;20492;-68
2022/09/05 09:00:18;;;;;;;1.00;0.90;;;;;;;;;;5074381;28;20592;-68
2022/09/05 09:03:00;;;;;;;1.37;1.27;;;;;;;;;;5077260;28;20522;-68
2022/09/05 09:05:48;;;;;;;0.70;0.60;;;;;;;;;;5074299;28;20431;-68
2022/09/05 09:08:43;;;;;;;2.50;0.73;;;;;;;;;;5082032;28;20419;-69
2022/09/05 09:11:13;;;;;;;0.70;0.50;;;;;;;;;;5080634;28;20426;-69
2022/09/05 09:13:51;;;;;;;0.70;0.60;;;;;;;;;;5086108;28;20429;-68
2022/09/05 09:16:26;;;;;;;0.70;0.60;;;;;;;;;;5080653;28;21018;-69
2022/09/05 09:19:02;;;;;;;6.33;2.10;;;;;;;;;;5079058;28;20939;-69
2022/09/05 09:21:34;;;;;;;0.70;0.60;;;;;;;;;;5087127;28;21057;-69
2022/09/05 09:24:06;;;;;;;0.70;0.60;;;;;;;;;;5074034;28;20435;-69
2022/09/05 09:26:37;;;;;;;1.63;1.53;;;;;;;;;;5083605;28;20434;-70
2022/09/05 09:29:05;;;;;;;0.70;0.50;;;;;;;;;;5083724;28;20840;-69
2022/09/05 09:31:50;;;;;;;0.70;0.50;;;;;;;;;;5077495;28;20808;-71
2022/09/05 09:34:51;;;;;;;0.80;0.60;;;;;;;;;;5086420;28;20462;-69
2022/09/05 09:37:29;;;;;;;0.80;0.70;;;;;;;;;;5045660;28;20464;-70
2022/09/05 09:40:28;;;;;;;0.80;0.70;;;;;;;;;;5022308;28;21076;-68
2022/09/05 09:43:00;;;;;;;0.70;0.50;;;;;;;;;;5072841;28;20536;-70
2022/09/05 09:45:50;;;;;;;1.17;1.07;;;;;;;;;;5088616;28;20427;-69
2022/09/05 09:48:37;;;;;;;0.70;0.60;;;;;;;;;;5072560;28;20423;-69
2022/09/05 09:51:10;;;;;;;0.80;0.60;;;;;;;;;;5084680;28;20449;-69
2022/09/05 09:53:51;;;;;;;1.00;0.90;;;;;;;;;;5080937;28;20442;-69
2022/09/05 09:56:35;;;;;;;0.80;0.60;;;;;;;;;;5087681;28;20493;-69
2022/09/05 09:59:18;;;;;;;0.80;0.70;;;;;;;;;;5078688;28;20427;-69
2022/09/05 10:01:53;;;;;;;0.80;0.50;;;;;;;;;;5072235;28;20973;-70
2022/09/05 10:04:35;;;;;;;0.80;0.60;;;;;;;;;;5079825;28;20488;-69
2022/09/05 10:07:36;;;;;;;0.80;0.50;;;;;;;;;;5080443;28;20458;-69
2022/09/05 10:10:39;;;;;;;0.90;0.60;;;;;;;;;;5083213;28;20463;-70
2022/09/05 10:13:33;;;;;;;0.80;0.50;;;;;;;;;;5085632;28;20441;-69
2022/09/05 10:16:19;;;;;;;1.33;0.70;;;;;;;;;;5084049;28;20562;-68
2022/09/05 10:18:53;;;;;;;1.10;0.80;;;;;;;;;;5085460;28;20422;-69
2022/09/05 10:21:35;;;;;;;0.83;0.50;;;;;;;;;;5087298;28;20852;-68
2022/09/05 10:24:14;;;;;;;0.90;0.60;;;;;;;;;;5064906;28;20449;-69
2022/09/05 10:26:56;;;;;;;0.90;0.50;;;;;;;;;;5084104;28;20503;-69
2022/09/05 10:29:38;;;;;;;0.90;0.60;;;;;;;;;;5061079;28;20268;-68
2022/09/05 10:32:12;;;;;;;0.90;0.50;;;;;;;;;;5074178;28;20791;-69
2022/09/05 10:35:00;;;;;;;0.90;0.60;;;;;;;;;;5086597;28;20218;-69
2022/09/05 10:37:48;;;;;;;0.90;0.50;;;;;;;;;;5090165;28;20429;-70
2022/09/05 10:40:19;;;;;;;0.90;0.70;;;;;;;;;;5091327;28;20187;-69
2022/09/05 10:42:46;;;;;;;0.90;0.67;;;;;;;;;;5078559;28;20211;-69
2022/09/05 10:45:30;;;;;;;1.00;0.70;;;;;;;;;;5083701;28;20647;-69
2022/09/05 10:48:10;;;;;;;0.90;0.60;;;;;;;;;;5081757;28;20187;-70
2022/09/05 10:50:41;;;;;;;0.90;0.60;;;;;;;;;;5078765;28;20676;-69
2022/09/05 10:53:18;;;;;;;0.90;0.60;;;;;;;;;;5073151;28;20210;-69
2022/09/05 10:55:54;;;;;;;0.90;0.57;;;;;;;;;;5085556;28;20509;-70
2022/09/05 10:58:33;;;;;;;6.33;0.90;;;;;;;;;;5085547;28;20424;-69
2022/09/05 11:01:24;;;;;;;0.90;0.50;;;;;;;;;;5087761;28;20463;-69
2022/09/05 11:04:21;;;;;;;0.90;0.60;;;;;;;;;;5089915;28;20552;-71
2022/09/05 11:06:51;;;;;;;0.90;0.50;;;;;;;;;;5078858;28;20493;-69
2022/09/05 11:09:23;;;;;;;0.90;0.50;;;;;;;;;;5078428;28;20915;-69
2022/09/05 11:11:57;;;;;;;0.93;0.70;;;;;;;;;;5077394;28;20430;-69
2022/09/05 11:14:33;;;;;;;0.93;0.60;;;;;;;;;;5089166;28;20495;-68
2022/09/05 11:17:08;;;;;;;0.90;0.57;;;;;;;;;;5077889;28;21063;-69
2022/09/05 11:19:39;;;;;;;0.80;0.60;;;;;;;;;;5086651;28;20520;-70
2022/09/05 11:22:09;;;;;;;0.90;0.50;;;;;;;;;;5082737;28;20457;-70
2022/09/05 11:24:51;;;;;;;0.90;0.70;;;;;;;;;;5085574;28;20532;-68
2022/09/05 11:27:24;;;;;;;0.90;0.70;;;;;;;;;;5084379;28;21010;-69
2022/09/05 11:29:53;;;;;;;0.90;0.50;;;;;;;;;;5087411;28;20438;-69
2022/09/05 11:32:33;;;;;;;0.80;0.50;;;;;;;;;;5081130;28;20525;-70
2022/09/05 11:35:23;;;;;;;0.80;0.60;;;;;;;;;;5081009;28;20445;-70
2022/09/05 11:38:25;;;;;;;0.90;0.60;;;;;;;;;;5090349;28;20447;-70
2022/09/05 11:41:30;;;;;;;0.80;0.50;;;;;;;;;;5077315;28;20430;-71
2022/09/05 11:44:14;;;;;;;1.17;0.87;;;;;;;;;;5048765;28;20439;-69
2022/09/05 11:47:01;;;;;;;1.00;0.70;;;;;;;;;;5080599;28;21040;-70
2022/09/05 11:50:24;;;;;;;0.90;0.60;;;;;;;;;;5073147;28;20798;-70
2022/09/05 11:53:20;;;;;;;1.00;0.60;;;;;;;;;;5021491;28;20536;-69
2022/09/05 11:55:58;;;;;;;0.83;0.57;;;;;;;;;;5004793;28;20473;-69
2022/09/05 11:58:45;;;;;;;1.10;0.60;;;;;;;;;;5072711;28;20446;-69
2022/09/05 12:01:19;;;;;;;0.80;0.60;;;;;;;;;;5073060;28;20478;-69
2022/09/05 12:04:15;;;;;;;0.87;0.60;;;;;;;;;;5077775;28;20447;-70
2022/09/05 12:06:59;;;;;;;1.30;1.00;;;;;;;;;;5077572;28;20486;-71
2022/09/05 12:09:35;;;;;;;0.90;0.70;;;;;;;;;;5092574;28;20430;-69
2022/09/05 12:12:08;;;;;;;0.80;0.60;;;;;;;;;;5091278;28;20468;-69
2022/09/05 12:15:02;;;;;;;0.80;0.50;;;;;;;;;;5087507;28;20453;-70
2022/09/05 12:17:38;;;;;;;0.80;0.50;;;;;;;;;;5085630;28;20471;-69
2022/09/05 12:20:11;;;;;;;1.03;0.90;;;;;;;;;;5099662;28;20869;-69
2022/09/05 12:23:01;;;;;;;1.27;0.60;;;;;;;;;;5085472;28;20538;-70
2022/09/05 12:25:35;;;;;;;0.93;0.60;;;;;;;;;;5070626;28;20438;-70
2022/09/05 12:28:25;;;;;;;0.80;0.50;;;;;;;;;;5077343;28;20454;-69
2022/09/05 12:31:18;;;;;;;0.80;0.60;;;;;;;;;;5076731;28;20442;-71
2022/09/05 12:34:17;;;;;;;0.80;0.60;;;;;;;;;;5074027;28;20477;-69
2022/09/05 12:37:08;;;;;;;0.80;0.70;;;;;;;;;;5087082;28;20494;-69
2022/09/05 12:39:57;;;;;;;0.80;0.50;;;;;;;;;;5082704;28;20465;-70
2022/09/05 12:42:51;;;;;;;0.80;0.60;;;;;;;;;;5083051;28;20427;-70
2022/09/05 12:45:41;;;;;;;0.80;0.60;;;;;;;;;;5084645;28;20842;-70
2022/09/05 12:48:12;;;;;;;1.40;0.93;;;;;;;;;;5073080;28;20445;-70
2022/09/05 12:50:42;;;;;;;0.80;0.60;;;;;;;;;;5073889;28;20459;-70
2022/09/05 12:53:11;;;;;;;0.90;0.80;;;;;;;;;;5076565;28;20538;-71
2022/09/05 12:55:41;;;;;;;0.80;0.60;;;;;;;;;;5080690;28;20844;-69
2022/09/05 12:58:20;;;;;;;0.80;0.60;;;;;;;;;;5074737;28;20445;-72
2022/09/05 13:01:18;;;;;;;0.80;0.50;;;;;;;;;;5073469;28;20455;-72
2022/09/05 13:04:10;;;;;;;0.90;0.70;;;;;;;;;;5076913;28;20463;-72
2022/09/05 13:06:46;;;;;;;4.10;1.00;;;;;;;;;;5086501;28;20847;-72
2022/09/05 13:09:19;;;;;;;1.00;0.90;;;;;;;;;;5071630;28;20518;-72
2022/09/05 13:11:47;;;;;;;0.80;0.50;;;;;;;;;;5064185;28;20943;-72
2022/09/05 13:14:44;;;;;;;0.80;0.60;;;;;;;;;;5084146;28;20450;-72
2022/09/05 13:17:37;;;;;;;1.30;0.70;;;;;;;;;;5072722;28;20463;-72
2022/09/05 13:20:16;;;;;;;2.03;1.00;;;;;;;;;;5078362;28;20455;-72
2022/09/05 13:22:45;;;;;;;0.80;0.50;;;;;;;;;;5078582;28;20439;-74
2022/09/05 13:25:17;;;;;;;0.90;0.70;;;;;;;;;;5072552;28;20784;-74
2022/09/05 13:27:55;;;;;;;1.00;0.60;;;;;;;;;;5073545;28;20467;-73
2022/09/05 13:30:24;;;;;;;0.80;0.50;;;;;;;;;;5090830;28;20475;-74
2022/09/05 13:33:12;;;;;;;0.80;0.60;;;;;;;;;;5081891;28;20832;-75
2022/09/05 13:36:04;;;;;;;1.80;0.77;;;;;;;;;;5081401;28;20562;-74
2022/09/05 13:38:57;;;;;;;0.90;0.60;;;;;;;;;;5087711;28;20429;-73
2022/09/05 13:41:27;;;;;;;1.00;0.80;;;;;;;;;;5085053;28;20434;-72
2022/09/05 13:43:55;;;;;;;0.90;0.67;;;;;;;;;;5081330;28;20432;-74
2022/09/05 13:46:52;;;;;;;0.90;0.70;;;;;;;;;;5087862;28;20418;-71
2022/09/05 13:49:25;;;;;;;1.00;0.70;;;;;;;;;;5089291;28;20468;-72
2022/09/05 13:52:04;;;;;;;0.90;0.50;;;;;;;;;;5083576;28;20567;-73
2022/09/05 13:54:35;;;;;;;1.00;0.70;;;;;;;;;;5072962;28;20442;-74
2022/09/05 13:57:15;;;;;;;1.10;0.70;;;;;;;;;;5090762;28;20516;-75
2022/09/05 14:00:16;;;;;;;0.83;0.50;;;;;;;;;;5093212;28;20438;-75
2022/09/05 14:03:11;;;;;;;0.90;0.60;;;;;;;;;;5052885;28;20460;-75
2022/09/05 14:06:02;;;;;;;0.80;0.50;;;;;;;;;;5082129;28;20486;-76
2022/09/05 14:08:59;;;;;;;0.80;0.50;;;;;;;;;;5086151;28;20800;-75
2022/09/05 14:11:54;;;;;;;0.90;0.80;;;;;;;;;;5078542;28;20987;-76
2022/09/05 14:14:24;;;;;;;0.80;0.50;;;;;;;;;;5092440;28;20492;-75
2022/09/05 14:17:29;;;;;;;1.00;0.60;;;;;;;;;;5093792;28;20826;-75
2022/09/05 14:23:12;;;;;;;1.20;1.03;;;;;;;;;;5073643;28;20447;-74
2022/09/05 14:25:39;;;;;;;0.90;0.67;;;;;;;;;;5075709;28;20442;-74
2022/09/05 14:28:11;;;;;;;0.90;0.60;;;;;;;;;;5082834;28;20456;-74
2022/09/05 14:30:43;;;;;;;0.80;0.50;;;;;;;;;;5085970;28;20442;-75
2022/09/05 14:33:39;;;;;;;0.80;0.50;;;;;;;;;;5083925;28;20831;-74
2022/09/05 14:36:33;;;;;;;0.80;0.50;;;;;;;;;;5079649;28;20541;-75
2022/09/05 14:39:30;;;;;;;0.80;0.50;;;;;;;;;;5081250;28;20438;-74
2022/09/05 14:42:13;;;;;;;0.90;0.60;;;;;;;;;;5077430;28;20773;-73
2022/09/05 14:45:02;;;;;;;0.80;0.50;;;;;;;;;;5068666;28;20444;-76
2022/09/05 14:47:44;;;;;;;0.90;0.60;;;;;;;;;;5080800;28;20585;-73
2022/09/05 14:50:26;;;;;;;1.67;1.33;;;;;;;;;;5080816;28;20798;-75
2022/09/05 14:53:04;;;;;;;0.80;0.60;;;;;;;;;;5092155;28;20487;-72
2022/09/05 14:55:56;;;;;;;0.80;0.60;;;;;;;;;;5086845;28;20545;-72
2022/09/05 14:58:43;;;;;;;0.80;0.50;;;;;;;;;;5083862;28;20839;-72
2022/09/05 15:01:30;;;;;;;1.47;1.27;;;;;;;;;;5081860;28;20426;-72
2022/09/05 15:04:21;;;;;;;0.80;0.60;;;;;;;;;;5080892;28;20538;-72
2022/09/05 15:07:17;;;;;;;0.80;0.57;;;;;;;;;;5084556;28;20505;-72
2022/09/05 15:09:45;;;;;;;0.90;0.60;;;;;;;;;;5082669;28;20448;-72
2022/09/05 15:12:33;;;;;;;1.00;0.77;;;;;;;;;;5092680;28;20551;-72
2022/09/05 15:15:18;;;;;;;0.80;0.50;;;;;;;;;;5074578;28;20430;-71
2022/09/05 15:17:47;;;;;;;0.80;0.60;;;;;;;;;;5084720;28;20583;-71
2022/09/05 15:20:28;;;;;;;0.90;0.70;;;;;;;;;;5081327;28;20441;-71
2022/09/05 15:22:56;;;;;;;0.83;0.53;;;;;;;;;;5092632;28;20430;-72
2022/09/05 15:25:25;;;;;;;0.80;0.50;;;;;;;;;;5089930;28;20934;-72
2022/09/05 15:27:53;;;;;;;0.80;0.60;;;;;;;;;;5086904;28;20431;-72
2022/09/05 15:30:26;;;;;;;0.80;0.60;;;;;;;;;;5079108;28;20518;-72
2022/09/05 15:33:12;;;;;;;0.80;0.60;;;;;;;;;;5080547;28;20493;-71
2022/09/05 15:35:42;;;;;;;0.80;0.60;;;;;;;;;;5082437;28;20471;-71
2022/09/05 15:38:18;;;;;;;0.90;0.70;;;;;;;;;;5089542;28;20463;-71
2022/09/05 15:41:00;;;;;;;0.83;0.67;;;;;;;;;;5095444;28;20446;-71
2022/09/05 15:43:27;;;;;;;1.20;1.10;;;;;;;;;;5097007;28;20960;-71
2022/09/05 15:45:59;;;;;;;0.80;0.70;;;;;;;;;;5093196;28;20512;-71
2022/09/05 15:48:26;;;;;;;0.70;0.60;;;;;;;;;;5092883;28;20433;-71
2022/09/05 15:51:04;;;;;;;0.80;0.70;;;;;;;;;;5085938;28;20596;-71
2022/09/05 15:53:35;;;;;;;0.80;0.67;;;;;;;;;;5086707;28;20430;-71
2022/09/05 15:56:16;;;;;;;0.70;0.50;;;;;;;;;;5086984;28;20443;-72
2022/09/05 15:58:47;;;;;;;1.00;0.80;;;;;;;;;;5093870;28;20532;-72
2022/09/05 16:01:28;;;;;;;0.80;0.70;;;;;;;;;;5086278;28;20461;-71
2022/09/05 16:04:19;;;;;;;0.70;0.60;;;;;;;;;;5098376;28;20446;-71
2022/09/05 16:07:07;;;;;;;0.80;0.60;;;;;;;;;;5080666;28;20512;-71
2022/09/05 16:09:54;;;;;;;0.80;0.60;;;;;;;;;;5081541;28;20453;-71